• Join FlightAware (Why Join?)
  • Login
  • US Flag 
01:07AM EDT


 

Airport Tracker/Info


-or-


 

Live Flight TrackerFlight Track Log ✈ N420CL ✈ 07-Jul-2013 ✈ KMKY - KFKL

Flight Track Log - Related Links

Times and Time Zones

All times are in EDT time to prevent confusion due to time zone crossing. See the N420CL flight status page for this flight to view local times or setup timezone preferences in your user account.

Time Position Orientation Groundspeed Altitude Reporting Facility
EDT Latitude Longitude Course Direction KTS MPH feet Rate Location/Type
04:48PM 26.0017 -81.7822 North 273 314 3,500  Level Miami Center
04:49PM 26.0764 -81.7922 353° North 284 327 6,600 3,060 Climbing Miami Center
04:50PM 26.1500 -81.7769 11° North 279 321 9,700 1,620 Climbing Miami Center
04:51PM 26.2242 -81.7497 18° North 340 391 9,900 960 Climbing Miami Center
04:52PM 26.3100 -81.7394 North 326 375 11,700 1,920 Climbing Miami Center
04:53PM 26.4003 -81.7247 North 321 369 13,800 2,280 Climbing Miami Center
04:54PM 30.9731 -81.4173 North  Level FlightAware Approximate
04:54PM 26.4947 -81.7078 North 326 375 16,300  Level Miami Center
04:55PM 26.5853 -81.6906 10° North 332 382 18,000 1,680 Climbing Miami Center
04:56PM 26.6817 -81.6758 North 332 382 19,700 1,740 Climbing Miami Center
04:57PM 26.7783 -81.6567 10° North 337 388 21,500 1,680 Climbing Miami Center
04:58PM 26.8750 -81.6397 North 343 395 23,100 1,500 Climbing Miami Center
04:59PM 26.9864 -81.6186 10° North 359 413 24,600 1,380 Climbing Miami Center
05:00PM 27.0892 -81.5994 North 365 420 25,900 1,200 Climbing Miami Center
05:01PM 27.1964 -81.5806 North 377 434 27,000 1,080 Climbing Miami Center
05:02PM 27.2950 -81.5636 North 388 447 28,100 1,080 Climbing Miami Center
05:03PM 27.4042 -81.5447 North 388 447 29,200 1,140 Climbing Miami Center
05:04PM 27.5258 -81.5239 North 394 453 30,400 960 Climbing Miami Center
05:05PM 27.6372 -81.5025 10° North 394 453 31,200 780 Climbing Miami Center
05:06PM 27.7506 -81.4814 North 399 459 32,000 900 Climbing Miami Center
05:07PM 27.8514 -81.4619 10° North 404 465 33,000 900 Climbing Miami Center
05:08PM 27.9625 -81.4453 North 409 471 33,800 900 Climbing Miami Center
05:10PM 28.1564 -81.4400 North 434 499 35,400 1,080 Climbing Jacksonville Center
05:11PM 28.2711 -81.4431 359° North 412 474 36,600 1,020 Climbing Jacksonville Center
05:12PM 28.3733 -81.4417 North 400 460 37,500 900 Climbing Jacksonville Center
05:13PM 28.4967 -81.4494 357° North 405 466 38,400 720 Climbing Jacksonville Center
05:14PM 28.6050 -81.4525 359° North 400 460 39,000 300 Climbing Jacksonville Center
05:15PM 28.7219 -81.4581 358° North 405 466 39,000  Level Jacksonville Center
05:16PM 28.8661 -81.4631 358° North 417 480 39,000  Level Jacksonville Center
05:17PM 28.9850 -81.4636 360° North 423 487 39,000  Level Jacksonville Center
05:18PM 29.1061 -81.4689 358° North 423 487 39,000  Level Jacksonville Center
05:19PM 29.2231 -81.4744 358° North 423 487 39,000  Level Jacksonville Center
05:20PM 29.3442 -81.4728 North 423 487 39,000  Level Jacksonville Center
05:21PM 29.4653 -81.4661 North 423 487 39,000  Level Jacksonville Center
05:22PM 29.5883 -81.4619 North 423 487 39,000  Level Jacksonville Center
05:23PM 29.7094 -81.4578 North 428 493 39,000  Level Jacksonville Center
05:24PM 29.8325 -81.4511 North 434 499 39,000  Level Jacksonville Center
05:25PM 29.9514 -81.4469 North 434 499 39,000  Level Jacksonville Center
05:26PM 30.0703 -81.4428 North 434 499 39,000  Level Jacksonville Center
05:27PM 30.1914 -81.4361 North 434 499 39,000  Level Jacksonville Center
05:28PM 30.3125 -81.4344 North 434 499 39,000  Level Jacksonville Center
05:29PM 30.4231 -81.4281 North 434 499 39,000  Level Jacksonville Center
05:30PM 30.5419 -81.4261 North 434 499 39,000  Level Jacksonville Center
05:31PM 30.6653 -81.4194 North 434 499 39,000  Level Jacksonville Center
05:32PM 30.7842 -81.4150 North 434 499 39,000  Level Jacksonville Center
05:33PM 30.9031 -81.4133 North 434 499 39,000  Level Jacksonville Center
05:34PM 31.0219 -81.4089 North 434 499 39,000  Level Jacksonville Center
05:35PM 31.1431 -81.4047 North 429 494 39,000  Level Jacksonville Center
05:36PM 31.2661 -81.3978 North 429 494 39,000  Level Jacksonville Center
05:37PM 31.3808 -81.3911 North 422 486 39,000  Level Jacksonville Center
05:38PM 31.5167 -81.3889 North 422 486 39,000  Level Jacksonville Center
05:39PM 31.6356 -81.3822 North 422 486 39,000  Level Jacksonville Center
05:40PM 31.7461 -81.3803 North 422 486 39,000  Level Jacksonville Center
05:41PM 31.8797 -81.3733 North 428 493 39,000  Level Jacksonville Center
05:42PM 32.0069 -81.3711 North 451 519 39,000  Level Jacksonville Center
05:43PM 32.1303 -81.3642 North 445 512 39,000  Level Jacksonville Center
05:44PM 32.2553 -81.3597 North 440 506 39,000  Level Jacksonville Center
05:45PM 32.3764 -81.3553 North 440 506 39,000  Level Jacksonville Center
05:46PM 32.4911 -81.3533 North 440 506 39,000  Level Jacksonville Center
05:47PM 32.6269 -81.3483 North 440 506 39,000  Level Jacksonville Center
05:48PM 32.7519 -81.3414 North 440 506 39,000  Level Jacksonville Center
05:49PM 32.8772 -81.3342 North 440 506 39,000  Level Jacksonville Center
05:50PM 33.0025 -81.3322 North 440 506 39,000  Level Jacksonville Center
05:51PM 33.1297 -81.3275 North 440 506 39,000  Level Jacksonville Center
05:52PM 33.2569 -81.3228 North 445 512 39,000  Level Jacksonville Center
05:53PM 33.3842 -81.3181 North 445 512 39,000  Level Jacksonville Center
05:54PM 33.4969 -81.3133 North 450 518 39,000  Level Jacksonville Center
05:55PM 33.6261 -81.2986 North 455 524 39,000  Level Jacksonville Center
05:56PM 33.7531 -81.2739 North 460 529 39,000  Level Jacksonville Center
05:57PM 33.8819 -81.2464 10° North 465 535 39,000  Level Jacksonville Center
05:58PM 34.0092 -81.2342 North 465 535 39,000  Level Jacksonville Center
06:00PM 34.3125 -81.2019 North 457 526 39,000  Level Atlanta Center
06:01PM 34.4414 -81.1850 North 464 534 39,000  Level Atlanta Center
06:02PM 34.5686 -81.1833 North 459 528 39,000  Level Atlanta Center
06:03PM 34.6856 -81.1792 North 459 528 39,000  Level Atlanta Center
06:04PM 34.8169 -81.1772 North 459 528 39,000  Level Atlanta Center
06:05PM 34.9400 -81.1756 North 454 522 39,000 180 Level Atlanta Center
06:06PM 35.0672 -81.1711 North 454 522 39,400 540 Climbing Atlanta Center
06:07PM 35.1964 -81.1694 North 454 522 40,100 660 Climbing Atlanta Center
06:08PM 35.3194 -81.1675 North 459 528 40,800 420 Climbing Atlanta Center
06:09PM 35.4447 -81.1606 North 452 520 41,000 60 Climbing Atlanta Center
06:10PM 35.5781 -81.1586 North 452 520 41,000  Level Atlanta Center
06:11PM 35.7219 -81.1561 North 466 536 41,000  Level Atlanta Center
06:12PM 35.8472 -81.1567 360° North 484 557 41,000  Level Atlanta Center
06:13PM 35.9764 -81.1547 North 470 541 41,000  Level Atlanta Center
06:14PM 36.1078 -81.1525 North 465 535 41,000  Level Atlanta Center
06:15PM 36.2328 -81.1506 North 459 528 41,000  Level Atlanta Center
06:16PM 36.3683 -81.1483 North 459 528 41,000  Level Atlanta Center
06:19PM 36.6725 -81.1433 North 479 551 41,000  Level Indianapolis Center
06:20PM 36.8006 -81.1406 North 475 547 41,000  Level Indianapolis Center
06:21PM 36.9317 -81.1400 360° North 480 552 41,000  Level Indianapolis Center
06:22PM 37.0617 -81.1378 North 479 551 41,000  Level Indianapolis Center
06:23PM 37.2172 -81.1339 North 479 551 41,000  Level Indianapolis Center
06:24PM 37.3481 -81.1333 360° North 480 552 41,000  Level Indianapolis Center
06:25PM 37.4794 -81.1300 North 483 556 41,000  Level Indianapolis Center
06:26PM 37.6369 -81.1275 North 483 556 41,000  Level Indianapolis Center
06:27PM 37.7686 -81.1244 North 484 557 41,000  Level Indianapolis Center
06:28PM 37.8892 -81.0875 14° North 492 566 41,000  Level Indianapolis Center
06:29PM 38.0489 -81.0344 15° North 494 568 41,000  Level Indianapolis Center
06:30PM 38.1819 -80.9900 15° North 496 571 41,000  Level Indianapolis Center
06:31PM 38.3153 -80.9450 15° North 498 573 41,000  Level Indianapolis Center
06:32PM 38.4494 -80.8997 15° North 501 577 41,000 -300 Level Indianapolis Center
06:33PM 38.5839 -80.8525 15° North 504 580 40,400 -840 Descending Indianapolis Center
06:34PM 38.7192 -80.8064 15° North 505 581 39,300 -1,200 Descending Indianapolis Center
06:35PM 38.8508 -80.7600 15° North 497 572 38,000 -1,380 Descending Indianapolis Center
06:36PM 39.0147 -80.7033 15° North 510 587 36,500 -1,320 Descending Indianapolis Center
06:37PM 39.1525 -80.6569 15° North 513 590 35,400 -780 Descending Indianapolis Center
06:38PM 39.2922 -80.6078 15° North 519 597 35,000 -240 Descending Indianapolis Center
06:39PM 39.4294 -80.5603 15° North 513 590 35,000  Level Indianapolis Center
06:40PM 39.5686 -80.5142 14° North 517 595 35,000  Level Indianapolis Center
06:41PM 39.7314 -80.4561 15° North 508 585 35,000 -540 Level Cleveland Center
06:42PM 39.8669 -80.4100 15° North 508 585 34,000 -1,980 Descending Cleveland Center
06:43PM 40.0044 -80.3608 15° North 508 585 31,100 -2,940 Descending Cleveland Center
06:44PM 40.1461 -80.3114 15° North 515 593 28,200 -2,700 Descending Cleveland Center
06:45PM 40.2856 -80.2619 15° North 515 593 25,700 -2,700 Descending Cleveland Center
06:46PM 40.4208 -80.2122 16° North 509 586 22,900 -2,940 Descending Cleveland Center
06:47PM 40.5481 -80.1650 16° North 490 564 19,900 -3,000 Descending Cleveland Center
06:48PM 40.6686 -80.1233 15° North 462 532 17,000 -3,000 Descending Cleveland Center
06:49PM 40.7789 -80.0814 16° North 434 499 14,000 -2,520 Descending Cleveland Center
06:50PM 40.8747 -80.0475 15° North 402 463 12,000 -1,680 Descending Cleveland Center
06:51PM 40.9600 -80.0139 17° North 358 412 10,700 -1,500 Descending Cleveland Center
06:52PM 41.0350 -79.9886 14° North 311 358 9,100 -2,100 Descending Cleveland Center
06:53PM 41.0975 -79.9658 15° North 261 300 6,600 -2,400 Descending Cleveland Center
06:54PM 41.1661 -79.9406 16° North 236 272 4,300 -1,380 Descending Cleveland Center
06:55PM 41.2264 -79.9150 18° North 224 258 3,900 -600 Descending Cleveland Center
06:56PM 41.2844 -79.8894 18° North 224 258 3,200 -360 Descending Cleveland Center
06:57PM 41.3364 -79.8558 26° Northeast 219 252 3,200 -120 Level Cleveland Center
06:58PM 41.3781 -79.8250 29° Northeast 187 215 3,000 -240 Descending Cleveland Center
07:00PM 41.3667 -79.8500 270° West  Level FlightAware Approximate
07:07PM 41.3774 -79.8606 270° West  Level Estimated
07:08PM 41.3774 -79.8606 270° West  Level Estimated
07:09PM 41.3774 -79.8606 270° West  Level Estimated